Accueil
METAR-TAF:

METAR-TAF

Aéroports :

Oberpfaffenhofen, Allemagne

latitude: 48-05N, longitude: 011-17E, altitude: 600 m

Observation

Le bulletin a été fait il y a 28 minutes, à 10:50 UTC
Vent 10 kt de ouest/nord-ouest
Température 7°C
Humidité 81%
Pression 1009 hPa
Visibilité 10 km ou plus
Nuages épars à une hauteur de 900 ft
Nuages fragmentés à une hauteur de 1500 ft

METAR: EDMO 251050Z 29010KT 9999 SCT009 BKN015 07/04 Q1009

Heure: 12:18 (11:18 UTC)

Prévision

Le bulletin a été fait il y a 18 heures et 18 minutes, à 17:00 UTC
Prévision valable du 24 à 18 UTC au 25 à 03 UTC
Vent 6 kt de sud/sud-ouest
Visibilité 10 km ou plus
pas de nuages en-dessous de 1500 mètres et pas de cumulonimbus.

TAF: EDMO 241700Z 2418/2503 20006KT CAVOK

Observations et prévisions météorologiques de plus de 4000 aéroports (messages METAR et TAF).

Les stations disponibles sont représentées par des disques jaunes et rouges sur la carte.

Passer la souris dessus pour voir le nom de la station.

Cliquer dessus pour voir les observations et prévisions météorologiques.

Pour changer de carte: cliquez sur les boutons verts avec une croix noire pour zoomer, sur le bouton vert avec un tiret pour effectuer un zoom arrière, ou sur les flèches vertes pour les cartes adjacentes.


METAR-TAF: